Time;durP1;ratioP1;P1;durP2;ratioP2;P2;SDS_P1;SDS_P2;PMS_P1;PMS_P2;Temp;Humidity;BMP_temperature;BMP_pressure;BME280_temperature;BME280_humidity;BME280_pressure;Samples;Min_cycle;Max_cycle;Signal;HPM_P1;HPM_P2
2022/03/31 00:00:47;;;;;;;0.00;0.00;;;4.30;99.90;;;;;;5044620;28;20045;-67
2022/03/31 00:03:17;;;;;;;0.00;0.00;;;4.30;99.90;;;;;;5043385;28;20493;-66
2022/03/31 00:05:44;;;;;;;0.00;0.00;;;4.30;99.90;;;;;;5025986;28;20434;-67
2022/03/31 00:08:13;;;;;;;0.00;0.00;;;4.30;99.90;;;;;;5044255;28;20136;-67
2022/03/31 00:10:43;;;;;;;0.00;0.00;;;4.40;99.90;;;;;;5043798;28;20119;-67
2022/03/31 00:13:12;;;;;;;0.00;0.00;;;4.30;99.90;;;;;;5044153;28;20056;-67
2022/03/31 00:15:38;;;;;;;0.00;0.00;;;4.40;99.90;;;;;;5044412;28;20045;-67
2022/03/31 00:18:06;;;;;;;0.00;0.00;;;4.30;99.90;;;;;;5044679;28;20440;-67
2022/03/31 00:23:53;;;;;;;0.00;0.00;;;4.30;99.90;;;;;;5042530;28;20132;-67
2022/03/31 00:26:19;;;;;;;0.00;0.00;;;4.40;99.90;;;;;;5044249;28;20245;-67
2022/03/31 00:28:45;;;;;;;0.00;0.00;;;4.20;99.90;;;;;;5026120;28;20052;-67
2022/03/31 00:31:10;;;;;;;0.00;0.00;;;4.20;99.90;;;;;;5044120;28;20045;-67
2022/03/31 00:33:36;;;;;;;0.00;0.00;;;5.10;99.90;;;;;;5026108;28;20072;-67
2022/03/31 00:36:02;;;;;;;0.00;0.00;;;4.30;99.90;;;;;;5044246;28;20045;-67
2022/03/31 00:38:28;;;;;;;0.00;0.00;;;4.20;99.90;;;;;;5026103;28;20053;-68
2022/03/31 00:40:53;;;;;;;0.00;0.00;;;4.20;99.90;;;;;;5024226;28;20507;-67
2022/03/31 00:43:19;;;;;;;0.00;0.00;;;4.20;99.90;;;;;;5043868;28;20041;-67
2022/03/31 00:45:48;;;;;;;0.00;0.00;;;4.20;99.90;;;;;;5043576;28;20507;-67
2022/03/31 00:48:16;;;;;;;0.00;0.00;;;4.20;99.90;;;;;;5026177;28;20083;-67
2022/03/31 00:50:42;;;;;;;0.00;0.00;;;4.20;99.90;;;;;;5042975;28;20124;-67
2022/03/31 00:53:08;;;;;;;0.00;0.00;;;4.20;99.90;;;;;;5043597;28;20403;-67
2022/03/31 00:55:34;;;;;;;0.00;0.00;;;4.20;99.90;;;;;;5043367;28;20060;-67
2022/03/31 00:58:01;;;;;;;0.00;0.00;;;4.10;99.90;;;;;;5043169;28;20212;-67
2022/03/31 01:00:27;;;;;;;0.00;0.00;;;4.10;99.90;;;;;;5043678;28;20041;-67
2022/03/31 01:02:53;;;;;;;0.00;0.00;;;4.10;99.90;;;;;;5053944;28;20556;-67
2022/03/31 01:05:18;;;;;;;0.00;0.00;;;4.10;99.90;;;;;;5026111;28;20120;-67
2022/03/31 01:07:44;;;;;;;0.00;0.00;;;4.00;99.90;;;;;;5042395;28;20067;-67
2022/03/31 01:10:12;;;;;;;0.00;0.00;;;4.00;99.90;;;;;;5042797;28;20081;-67
2022/03/31 01:12:38;;;;;;;0.00;0.00;;;4.00;99.90;;;;;;5042968;28;20057;-67
2022/03/31 01:15:15;;;;;;;0.00;0.00;;;4.00;99.90;;;;;;5043398;28;20055;-67
2022/03/31 01:17:42;;;;;;;0.00;0.00;;;3.90;99.90;;;;;;5042289;28;20094;-67
2022/03/31 01:20:11;;;;;;;0.00;0.00;;;3.90;99.90;;;;;;5042886;28;20041;-68
2022/03/31 01:22:37;;;;;;;0.00;0.00;;;4.00;99.90;;;;;;5042409;28;20045;-66
2022/03/31 01:25:06;;;;;;;0.00;0.00;;;3.90;99.90;;;;;;5008159;28;20044;-67
2022/03/31 01:27:35;;;;;;;0.00;0.00;;;3.90;99.90;;;;;;5043554;28;20060;-67
2022/03/31 01:30:02;;;;;;;0.00;0.00;;;3.90;99.90;;;;;;5043414;28;20122;-68
2022/03/31 01:32:28;;;;;;;0.00;0.00;;;4.00;99.90;;;;;;5043196;28;20048;-67
2022/03/31 01:34:54;;;;;;;0.00;0.00;;;3.90;99.90;;;;;;5042481;28;20369;-65
2022/03/31 01:37:20;;;;;;;0.00;0.00;;;4.00;99.90;;;;;;5043149;28;20049;-66
2022/03/31 01:39:45;;;;;;;0.00;0.00;;;3.90;99.90;;;;;;5041240;28;20068;-66
2022/03/31 01:42:12;;;;;;;0.00;0.00;;;3.80;99.90;;;;;;5042834;28;20056;-66
2022/03/31 01:44:38;;;;;;;0.00;0.00;;;3.80;99.90;;;;;;5042385;28;20049;-67
2022/03/31 01:47:04;;;;;;;0.00;0.00;;;3.80;99.90;;;;;;5042962;28;20051;-67
2022/03/31 01:49:30;;;;;;;0.00;0.00;;;3.80;99.90;;;;;;5042236;28;20120;-66
2022/03/31 01:51:55;;;;;;;0.00;0.00;;;3.80;99.90;;;;;;5042502;28;20116;-66
2022/03/31 01:54:21;;;;;;;0.00;0.00;;;3.70;99.90;;;;;;5042202;28;20594;-67
2022/03/31 01:56:48;;;;;;;0.00;0.00;;;3.70;99.90;;;;;;5041984;28;20120;-66
2022/03/31 01:59:14;;;;;;;0.00;0.00;;;3.70;99.90;;;;;;5042442;28;20051;-67
2022/03/31 02:01:39;;;;;;;0.00;0.00;;;3.70;99.90;;;;;;5046295;28;20798;-64
2022/03/31 02:04:05;;;;;;;0.00;0.00;;;3.70;99.90;;;;;;5048796;28;20041;-67
2022/03/31 02:06:31;;;;;;;0.00;0.00;;;3.70;99.90;;;;;;5042254;28;20033;-67
2022/03/31 02:08:57;;;;;;;0.00;0.00;;;3.70;99.90;;;;;;5023206;28;20090;-66
2022/03/31 02:11:23;;;;;;;0.00;0.00;;;3.70;99.90;;;;;;5042181;28;20110;-67
2022/03/31 02:13:49;;;;;;;0.00;0.00;;;3.70;99.90;;;;;;5042005;28;20052;-66
2022/03/31 02:16:15;;;;;;;0.00;0.00;;;3.70;99.90;;;;;;5041867;28;20049;-67
2022/03/31 02:18:41;;;;;;;0.00;0.00;;;3.70;99.90;;;;;;5042142;28;20040;-66
2022/03/31 02:21:07;;;;;;;0.00;0.00;;;3.70;99.90;;;;;;5024021;28;20044;-67
2022/03/31 02:23:32;;;;;;;0.00;0.00;;;3.70;99.90;;;;;;5041568;28;20590;-66
2022/03/31 02:25:58;;;;;;;0.00;0.00;;;3.70;99.90;;;;;;5023839;28;20045;-66
2022/03/31 02:28:24;;;;;;;0.00;0.00;;;3.70;99.90;;;;;;5041853;28;20448;-66
2022/03/31 02:30:49;;;;;;;0.00;0.00;;;3.70;99.90;;;;;;5041289;28;20506;-66
2022/03/31 02:33:15;;;;;;;0.00;0.00;;;3.70;99.90;;;;;;5023486;28;20045;-66
2022/03/31 02:35:41;;;;;;;0.00;0.00;;;3.70;99.90;;;;;;5041764;28;20503;-66
2022/03/31 02:38:06;;;;;;;0.00;0.00;;;3.60;99.90;;;;;;5041925;28;20047;-66
2022/03/31 02:40:32;;;;;;;0.00;0.00;;;3.60;99.90;;;;;;5041896;28;20439;-67
2022/03/31 02:42:58;;;;;;;0.00;0.00;;;3.40;99.90;;;;;;5041109;28;20132;-67
2022/03/31 02:45:23;;;;;;;0.20;0.20;;;3.60;99.90;;;;;;5041805;28;20044;-67
2022/03/31 02:47:49;;;;;;;0.00;0.00;;;3.90;99.90;;;;;;5041265;28;20551;-66
2022/03/31 02:50:17;;;;;;;0.00;0.00;;;3.60;99.90;;;;;;5024181;28;20144;-67
2022/03/31 02:55:28;;;;;;;0.00;0.00;;;3.50;99.90;;;;;;5041345;28;20380;-66
2022/03/31 02:58:04;;;;;;;0.00;0.00;;;3.50;99.90;;;;;;5040601;28;20053;-66
2022/03/31 03:00:32;;;;;;;0.00;0.00;;;3.50;99.90;;;;;;5042115;28;20178;-66
2022/03/31 03:02:59;;;;;;;0.00;0.00;;;3.50;99.90;;;;;;5052302;28;20037;-66
2022/03/31 03:05:25;;;;;;;0.00;0.00;;;3.50;99.90;;;;;;5041163;28;20358;-66
2022/03/31 03:07:51;;;;;;;0.00;0.00;;;3.40;99.90;;;;;;5041098;28;20470;-66
2022/03/31 03:10:16;;;;;;;0.00;0.00;;;3.40;99.90;;;;;;5040976;28;20107;-66
2022/03/31 03:12:42;;;;;;;0.00;0.00;;;2.80;99.90;;;;;;5023329;28;20125;-66
2022/03/31 03:15:10;;;;;;;0.00;0.00;;;3.50;99.90;;;;;;5041127;28;20041;-67
2022/03/31 03:17:41;;;;;;;0.00;0.00;;;3.50;99.90;;;;;;5041791;28;20224;-66
2022/03/31 03:20:08;;;;;;;0.00;0.00;;;3.50;99.90;;;;;;5041296;28;20049;-66
2022/03/31 03:22:33;;;;;;;0.00;0.00;;;3.40;99.90;;;;;;5041328;28;20527;-66
2022/03/31 03:24:59;;;;;;;0.00;0.00;;;3.40;99.90;;;;;;5040582;28;20041;-66
2022/03/31 03:27:25;;;;;;;0.00;0.00;;;3.40;99.90;;;;;;5041406;28;20056;-66
2022/03/31 03:29:51;;;;;;;0.00;0.00;;;3.40;99.90;;;;;;5041047;28;20037;-67
2022/03/31 03:32:17;;;;;;;0.00;0.00;;;3.40;99.90;;;;;;5041356;28;20703;-67
2022/03/31 03:34:43;;;;;;;0.00;0.00;;;3.40;99.90;;;;;;5041166;28;20663;-66
2022/03/31 03:37:08;;;;;;;0.00;0.00;;;3.40;99.90;;;;;;5041391;28;20127;-67
2022/03/31 03:39:34;;;;;;;0.00;0.00;;;3.30;99.90;;;;;;5040445;28;20052;-67
2022/03/31 03:42:01;;;;;;;0.00;0.00;;;3.40;99.90;;;;;;5042666;28;20045;-66
2022/03/31 03:44:26;;;;;;;0.00;0.00;;;3.40;99.90;;;;;;5044845;28;20048;-67
2022/03/31 03:46:53;;;;;;;0.00;0.00;;;3.40;99.90;;;;;;5044395;28;20036;-67
2022/03/31 03:49:19;;;;;;;0.00;0.00;;;3.40;99.90;;;;;;5044506;28;20056;-67
2022/03/31 03:51:45;;;;;;;0.00;0.00;;;3.50;99.90;;;;;;5044622;28;20408;-68
2022/03/31 03:54:11;;;;;;;0.00;0.00;;;3.40;99.90;;;;;;5044382;28;20041;-68
2022/03/31 03:56:37;;;;;;;0.00;0.00;;;3.30;99.90;;;;;;5044127;28;20041;-68
2022/03/31 03:59:04;;;;;;;0.00;0.00;;;3.30;99.90;;;;;;5045016;28;20156;-65
2022/03/31 04:01:30;;;;;;;0.10;0.10;;;3.30;99.90;;;;;;5030198;28;20106;-65
2022/03/31 04:03:57;;;;;;;0.00;0.00;;;3.20;99.90;;;;;;5052573;28;20041;-67
2022/03/31 04:06:23;;;;;;;0.00;0.00;;;3.10;99.90;;;;;;5043821;28;20049;-65
2022/03/31 04:08:48;;;;;;;0.00;0.00;;;3.10;99.90;;;;;;5043636;28;20048;-65
2022/03/31 04:11:14;;;;;;;0.00;0.00;;;3.10;99.90;;;;;;5044515;28;20100;-67
2022/03/31 04:13:40;;;;;;;0.00;0.00;;;3.10;99.90;;;;;;5044400;28;20120;-65
2022/03/31 04:16:05;;;;;;;0.00;0.00;;;3.10;99.90;;;;;;5044087;28;20041;-65
2022/03/31 04:18:32;;;;;;;0.00;0.00;;;3.10;99.90;;;;;;5044914;28;20118;-65
2022/03/31 04:21:01;;;;;;;0.00;0.00;;;3.00;99.90;;;;;;5043850;28;20052;-65
2022/03/31 04:23:26;;;;;;;0.00;0.00;;;3.00;99.90;;;;;;5025501;28;20092;-66
2022/03/31 04:25:52;;;;;;;0.00;0.00;;;3.00;99.90;;;;;;5043822;28;20072;-65
2022/03/31 04:28:18;;;;;;;0.00;0.00;;;3.00;99.90;;;;;;5044490;28;20527;-65
2022/03/31 04:30:43;;;;;;;0.00;0.00;;;3.00;99.90;;;;;;5026026;28;20056;-65
2022/03/31 04:33:09;;;;;;;0.00;0.00;;;3.10;99.90;;;;;;5043612;28;20044;-65
2022/03/31 04:35:36;;;;;;;0.00;0.00;;;3.00;99.90;;;;;;5043984;28;20041;-66
2022/03/31 04:38:02;;;;;;;0.00;0.00;;;3.00;99.90;;;;;;5043366;28;20049;-65
2022/03/31 04:40:28;;;;;;;0.00;0.00;;;2.90;99.90;;;;;;5025534;28;20102;-66
2022/03/31 04:42:54;;;;;;;0.00;0.00;;;3.00;99.90;;;;;;5025315;28;20045;-65
2022/03/31 04:45:20;;;;;;;0.00;0.00;;;2.30;99.90;;;;;;5044203;28;20501;-65
2022/03/31 04:47:46;;;;;;;0.00;0.00;;;3.00;99.90;;;;;;5025727;28;20052;-65
2022/03/31 04:50:13;;;;;;;0.00;0.00;;;3.00;99.90;;;;;;5043399;28;20086;-66
2022/03/31 04:52:39;;;;;;;0.00;0.00;;;3.00;99.90;;;;;;5043539;28;20037;-66
2022/03/31 04:55:06;;;;;;;0.00;0.00;;;2.90;99.90;;;;;;5043179;28;20047;-63
2022/03/31 04:57:31;;;;;;;0.00;0.00;;;2.90;99.90;;;;;;5044281;28;20041;-65
2022/03/31 04:59:57;;;;;;;0.00;0.00;;;3.00;99.90;;;;;;5024712;28;20381;-66
2022/03/31 05:02:23;;;;;;;0.00;0.00;;;3.00;99.90;;;;;;5054126;28;20525;-65
2022/03/31 05:04:48;;;;;;;0.00;0.00;;;2.90;99.90;;;;;;5043756;28;20102;-65
2022/03/31 05:07:14;;;;;;;0.00;0.00;;;2.90;99.90;;;;;;5042705;28;20215;-68
2022/03/31 05:09:41;;;;;;;0.00;0.00;;;2.90;99.90;;;;;;5042254;28;20487;-66
2022/03/31 05:12:08;;;;;;;0.00;0.00;;;2.90;99.90;;;;;;5043263;28;20096;-66
2022/03/31 05:14:34;;;;;;;0.00;0.00;;;2.90;99.90;;;;;;5043627;28;20040;-66
2022/03/31 05:17:00;;;;;;;0.00;0.00;;;2.90;99.90;;;;;;5024635;28;20049;-66
2022/03/31 05:19:26;;;;;;;0.00;0.00;;;2.90;99.90;;;;;;5043217;28;20712;-66
2022/03/31 05:21:52;;;;;;;0.00;0.00;;;2.90;99.90;;;;;;5025105;28;20128;-66
2022/03/31 05:24:17;;;;;;;0.00;0.00;;;2.80;99.90;;;;;;5042631;28;20048;-66
2022/03/31 05:26:43;;;;;;;0.00;0.00;;;2.80;99.90;;;;;;5042230;28;20793;-62
2022/03/31 05:29:09;;;;;;;0.00;0.00;;;2.90;99.90;;;;;;5043062;28;20041;-68
2022/03/31 05:31:35;;;;;;;0.00;0.00;;;2.80;99.90;;;;;;5024747;28;20558;-63
2022/03/31 05:34:00;;;;;;;0.00;0.00;;;2.80;99.90;;;;;;5042003;28;20044;-66
2022/03/31 05:36:26;;;;;;;0.00;0.00;;;2.80;99.90;;;;;;5042916;28;20040;-66
2022/03/31 05:38:51;;;;;;;0.00;0.00;;;2.70;99.90;;;;;;5041495;28;20170;-66
2022/03/31 05:41:17;;;;;;;0.00;0.00;;;2.70;99.90;;;;;;5042696;28;20045;-66
2022/03/31 05:43:43;;;;;;;0.00;0.00;;;2.60;99.90;;;;;;5042077;28;20033;-63
2022/03/31 05:46:09;;;;;;;0.00;0.00;;;2.60;99.90;;;;;;5042905;28;20482;-66
2022/03/31 05:48:34;;;;;;;0.00;0.00;;;2.60;99.90;;;;;;5042921;28;20076;-67
2022/03/31 05:51:00;;;;;;;0.00;0.00;;;2.60;99.90;;;;;;5042740;28;20124;-66
2022/03/31 05:53:26;;;;;;;0.00;0.00;;;2.60;99.90;;;;;;5041179;28;20049;-67
2022/03/31 05:55:52;;;;;;;0.00;0.00;;;2.50;99.90;;;;;;5041990;28;20673;-67
2022/03/31 05:58:18;;;;;;;0.00;0.00;;;2.60;99.90;;;;;;5042214;28;20119;-67
2022/03/31 06:00:43;;;;;;;0.00;0.00;;;2.60;99.90;;;;;;5042808;28;20140;-63
2022/03/31 06:03:09;;;;;;;0.00;0.00;;;2.60;99.90;;;;;;5052465;28;20131;-66
2022/03/31 06:05:35;;;;;;;0.00;0.00;;;2.60;99.90;;;;;;5042133;28;20468;-67
2022/03/31 06:08:01;;;;;;;0.00;0.00;;;2.60;99.90;;;;;;5041520;28;20116;-67
2022/03/31 06:10:26;;;;;;;0.00;0.00;;;2.40;99.90;;;;;;5041957;28;20125;-68
2022/03/31 06:12:54;;;;;;;0.00;0.00;;;2.50;99.90;;;;;;5023521;28;20531;-68
2022/03/31 06:15:19;;;;;;;0.00;0.00;;;2.50;99.90;;;;;;5042297;28;20106;-68
2022/03/31 06:17:46;;;;;;;0.00;0.00;;;2.50;99.90;;;;;;5041570;28;20080;-68
2022/03/31 06:20:12;;;;;;;0.00;0.00;;;2.50;99.90;;;;;;5041617;28;20037;-68
2022/03/31 06:22:38;;;;;;;0.00;0.00;;;2.40;99.90;;;;;;5041621;28;20045;-67
2022/03/31 06:25:06;;;;;;;0.00;0.00;;;2.40;99.90;;;;;;5042094;28;20110;-68
2022/03/31 06:27:33;;;;;;;0.00;0.00;;;2.40;99.90;;;;;;5024061;28;20052;-68
2022/03/31 06:29:59;;;;;;;0.00;0.00;;;2.40;99.90;;;;;;5041599;28;20462;-68
2022/03/31 06:32:24;;;;;;;0.00;0.00;;;2.40;99.90;;;;;;5041881;28;20184;-67
2022/03/31 06:34:50;;;;;;;0.00;0.00;;;2.50;99.90;;;;;;5041318;28;20376;-67
2022/03/31 06:37:16;;;;;;;0.00;0.00;;;2.50;99.90;;;;;;5041323;28;20259;-68
2022/03/31 06:39:42;;;;;;;0.00;0.00;;;2.50;99.90;;;;;;5022991;28;20452;-68
2022/03/31 06:42:08;;;;;;;0.00;0.00;;;2.50;99.90;;;;;;5041824;28;20047;-67
2022/03/31 06:44:34;;;;;;;0.00;0.00;;;2.40;99.90;;;;;;5024405;28;20519;-67
2022/03/31 06:46:59;;;;;;;0.00;0.00;;;2.50;99.90;;;;;;5041141;28;20037;-67
2022/03/31 06:49:25;;;;;;;0.00;0.00;;;2.40;99.90;;;;;;5041700;28;20045;-68
2022/03/31 06:51:51;;;;;;;0.00;0.00;;;2.40;99.90;;;;;;5041115;28;20037;-67
2022/03/31 06:54:18;;;;;;;0.00;0.00;;;2.50;99.90;;;;;;5040345;28;20037;-67
2022/03/31 06:56:44;;;;;;;0.00;0.00;;;2.50;99.90;;;;;;5023708;28;20088;-67
2022/03/31 06:59:10;;;;;;;0.00;0.00;;;2.60;99.90;;;;;;5041630;28;20044;-68
2022/03/31 07:01:35;;;;;;;0.00;0.00;;;2.60;99.90;;;;;;5045232;28;20045;-67
2022/03/31 07:04:01;;;;;;;0.00;0.00;;;2.70;99.90;;;;;;5048614;28;20120;-67
2022/03/31 07:06:27;;;;;;;0.00;0.00;;;2.70;99.90;;;;;;5041209;28;20171;-65
2022/03/31 07:08:53;;;;;;;0.00;0.00;;;2.60;99.90;;;;;;5040468;28;20777;-65
2022/03/31 07:11:18;;;;;;;0.00;0.00;;;2.80;99.90;;;;;;5041415;28;20068;-65
2022/03/31 07:13:44;;;;;;;0.00;0.00;;;2.80;99.90;;;;;;5040778;28;20053;-66
2022/03/31 07:16:10;;;;;;;0.00;0.00;;;2.70;99.90;;;;;;5041831;28;20253;-65
2022/03/31 07:18:36;;;;;;;0.00;0.00;;;2.70;99.90;;;;;;5045339;28;20045;-66
2022/03/31 07:21:02;;;;;;;0.00;0.00;;;2.70;99.90;;;;;;5027386;28;20053;-66
2022/03/31 07:23:28;;;;;;;0.00;0.00;;;2.80;99.90;;;;;;5044769;28;20045;-65
2022/03/31 07:25:56;;;;;;;0.00;0.00;;;2.80;99.90;;;;;;5044987;28;20110;-66
2022/03/31 07:28:23;;;;;;;0.00;0.00;;;2.80;99.90;;;;;;5045577;28;20107;-65
2022/03/31 07:30:50;;;;;;;0.00;0.00;;;2.80;99.90;;;;;;5044257;28;20153;-65
2022/03/31 07:33:19;;;;;;;0.00;0.00;;;2.70;99.90;;;;;;5045365;28;20504;-65
2022/03/31 07:35:47;;;;;;;0.00;0.00;;;2.70;99.90;;;;;;5044957;28;20121;-65
2022/03/31 07:38:13;;;;;;;0.00;0.00;;;2.80;99.90;;;;;;5043998;28;20389;-66
2022/03/31 07:40:40;;;;;;;0.00;0.00;;;2.80;99.90;;;;;;5044803;28;20037;-65
2022/03/31 07:43:06;;;;;;;0.00;0.00;;;2.70;99.90;;;;;;5045061;28;20051;-65
2022/03/31 07:45:36;;;;;;;0.00;0.00;;;2.70;99.90;;;;;;5045592;28;20049;-65
2022/03/31 07:48:05;;;;;;;0.00;0.00;;;2.60;99.90;;;;;;5044904;28;20045;-65
2022/03/31 07:50:31;;;;;;;0.00;0.00;;;2.50;99.90;;;;;;5045189;28;20043;-68
2022/03/31 07:52:57;;;;;;;0.00;0.00;;;2.50;99.90;;;;;;5043806;28;20098;-66
2022/03/31 07:55:24;;;;;;;0.00;0.00;;;2.50;99.90;;;;;;5026722;28;20492;-66
2022/03/31 07:57:51;;;;;;;0.00;0.00;;;2.40;99.90;;;;;;5044319;28;20124;-66
2022/03/31 08:00:17;;;;;;;0.00;0.00;;;2.50;99.90;;;;;;5045081;28;20045;-67
2022/03/31 08:02:45;;;;;;;0.00;0.00;;;2.50;99.90;;;;;;5051019;28;20044;-68
2022/03/31 08:05:12;;;;;;;0.00;0.00;;;2.50;99.90;;;;;;5064830;28;20033;-67
2022/03/31 08:07:39;;;;;;;0.00;0.00;;;2.30;99.90;;;;;;5045976;28;20056;-68
2022/03/31 08:10:06;;;;;;;0.00;0.00;;;2.40;99.90;;;;;;5064727;28;20041;-67
2022/03/31 08:12:33;;;;;;;0.00;0.00;;;2.30;99.90;;;;;;5063927;28;20114;-62
2022/03/31 08:14:59;;;;;;;0.00;0.00;;;2.30;99.90;;;;;;5064054;28;20048;-66
2022/03/31 08:17:25;;;;;;;0.00;0.00;;;2.20;99.90;;;;;;5064464;28;20055;-66
2022/03/31 08:19:51;;;;;;;0.00;0.00;;;2.30;99.90;;;;;;5063712;28;20605;-65
2022/03/31 08:22:17;;;;;;;0.00;0.00;;;2.30;99.90;;;;;;5064436;28;20086;-66
2022/03/31 08:24:43;;;;;;;0.00;0.00;;;2.30;99.90;;;;;;5045236;28;20539;-65
2022/03/31 08:27:09;;;;;;;0.00;0.00;;;2.20;99.90;;;;;;5063873;28;20044;-65
2022/03/31 08:29:42;;;;;;;0.10;0.10;;;2.10;99.90;;;;;;5063343;28;20411;-62
2022/03/31 08:32:43;;;;;;;0.00;0.00;;;2.10;99.90;;;;;;5055511;28;20439;-67
2022/03/31 08:35:18;;;;;;;0.00;0.00;;;2.10;99.90;;;;;;5063859;28;20095;-65
2022/03/31 08:37:44;;;;;;;0.00;0.00;;;2.20;99.90;;;;;;5062794;28;20072;-65
2022/03/31 08:40:11;;;;;;;0.00;0.00;;;2.10;99.90;;;;;;5063626;28;20041;-66
2022/03/31 08:42:38;;;;;;;0.00;0.00;;;2.20;99.90;;;;;;5063791;28;20044;-65
2022/03/31 08:45:04;;;;;;;0.00;0.00;;;2.20;99.90;;;;;;5064264;28;20200;-66
2022/03/31 08:47:30;;;;;;;0.00;0.00;;;2.20;99.90;;;;;;5064421;28;20427;-66
2022/03/31 08:49:57;;;;;;;0.00;0.00;;;2.00;99.90;;;;;;5062789;28;20036;-67
2022/03/31 08:52:24;;;;;;;0.00;0.00;;;2.00;99.90;;;;;;5057336;28;20058;-65
2022/03/31 08:54:50;;;;;;;0.00;0.00;;;2.10;99.90;;;;;;5058628;28;20048;-66
2022/03/31 08:57:17;;;;;;;0.10;0.10;;;2.00;99.90;;;;;;5043500;28;20032;-66
2022/03/31 08:59:43;;;;;;;0.00;0.00;;;2.10;99.90;;;;;;5056139;28;20080;-66
2022/03/31 09:02:20;;;;;;;0.10;0.10;;;1.90;99.90;;;;;;5056930;28;20053;-66
2022/03/31 09:04:45;;;;;;;0.00;0.00;;;2.10;99.90;;;;;;5044317;28;20044;-66
2022/03/31 09:07:11;;;;;;;0.20;0.20;;;2.00;99.90;;;;;;5042779;28;20047;-66
2022/03/31 09:09:52;;;;;;;0.00;0.00;;;2.00;99.90;;;;;;5025015;28;20045;-65
2022/03/31 09:12:19;;;;;;;0.00;0.00;;;1.90;99.90;;;;;;5043340;28;20053;-66
2022/03/31 09:14:44;;;;;;;0.45;0.20;;;1.90;99.90;;;;;;5042908;28;20037;-65
2022/03/31 09:17:14;;;;;;;0.00;0.00;;;1.90;99.90;;;;;;5042715;28;20148;-64
2022/03/31 09:19:41;;;;;;;0.10;0.10;;;1.80;99.90;;;;;;5042777;28;20107;-62
2022/03/31 09:22:07;;;;;;;0.00;0.00;;;1.80;99.90;;;;;;5042821;28;20047;-64
2022/03/31 09:24:33;;;;;;;0.00;0.00;;;2.00;99.90;;;;;;5042853;28;20045;-63
2022/03/31 09:27:00;;;;;;;0.00;0.00;;;1.80;99.90;;;;;;5042970;28;20058;-63
2022/03/31 09:29:28;;;;;;;0.00;0.00;;;1.70;99.90;;;;;;5042723;28;20127;-64
2022/03/31 09:32:11;;;;;;;0.10;0.10;;;1.80;99.90;;;;;;5042536;28;20429;-63
2022/03/31 09:34:39;;;;;;;0.00;0.00;;;1.80;99.90;;;;;;5042803;28;20140;-63
2022/03/31 09:37:05;;;;;;;0.00;0.00;;;1.70;99.90;;;;;;5042433;28;20045;-63
2022/03/31 09:39:30;;;;;;;0.00;0.00;;;1.80;99.90;;;;;;5041598;28;20493;-63
2022/03/31 09:41:57;;;;;;;0.00;0.00;;;1.80;99.90;;;;;;5024402;28;20072;-62
2022/03/31 09:44:23;;;;;;;0.00;0.00;;;1.60;99.90;;;;;;5042510;28;20037;-63
2022/03/31 09:46:50;;;;;;;0.00;0.00;;;1.60;99.90;;;;;;5042249;28;20044;-63
2022/03/31 09:49:24;;;;;;;0.00;0.00;;;1.60;99.90;;;;;;5042819;28;20391;-63
2022/03/31 09:51:56;;;;;;;0.00;0.00;;;1.60;99.90;;;;;;5042542;28;20817;-63
2022/03/31 09:54:25;;;;;;;0.00;0.00;;;1.60;99.90;;;;;;5041685;28;20037;-63
2022/03/31 09:56:51;;;;;;;0.05;0.05;;;1.50;99.90;;;;;;5042111;28;20041;-62
2022/03/31 09:59:17;;;;;;;0.00;0.00;;;1.50;99.90;;;;;;5042498;28;20032;-62
2022/03/31 10:01:44;;;;;;;0.00;0.00;;;1.40;99.90;;;;;;5046580;28;20036;-63
2022/03/31 10:04:11;;;;;;;0.00;0.00;;;1.40;99.90;;;;;;5048872;28;20067;-62
2022/03/31 10:06:41;;;;;;;0.10;0.10;;;1.30;99.90;;;;;;5042071;28;20526;-65
2022/03/31 10:09:10;;;;;;;1.13;0.10;;;1.90;99.90;;;;;;5041105;28;20082;-65
2022/03/31 10:11:40;;;;;;;0.10;0.10;;;1.60;99.90;;;;;;5041895;28;20059;-63
2022/03/31 10:14:36;;;;;;;0.00;0.00;;;1.60;99.90;;;;;;5042572;28;20415;-63
2022/03/31 10:17:08;;;;;;;0.10;0.10;;;1.60;99.90;;;;;;5042710;28;20090;-64
2022/03/31 10:19:38;;;;;;;0.00;0.00;;;1.60;99.90;;;;;;5042330;28;20048;-64
2022/03/31 10:24:41;;;;;;;0.00;0.00;;;1.50;99.90;;;;;;5040867;28;20057;-65
2022/03/31 10:25:00;;;;;;;0.10;0.10;;;1.60;99.90;;;;;;5041682;28;20691;-64
2022/03/31 10:27:28;;;;;;;0.00;0.00;;;1.50;99.90;;;;;;5042111;28;20036;-64
2022/03/31 10:29:54;;;;;;;0.10;0.10;;;1.40;99.90;;;;;;5041805;28;20073;-64
2022/03/31 10:32:22;;;;;;;0.00;0.00;;;1.50;99.90;;;;;;5024198;28;20072;-66
2022/03/31 10:34:54;;;;;;;0.00;0.00;;;1.40;99.90;;;;;;5023433;28;20559;-64
2022/03/31 10:37:38;;;;;;;0.00;0.00;;;1.40;99.90;;;;;;5023689;28;20101;-63
2022/03/31 10:40:09;;;;;;;0.00;0.00;;;1.40;99.90;;;;;;5041614;28;20040;-64
2022/03/31 10:42:38;;;;;;;0.00;0.00;;;1.40;99.90;;;;;;5023949;28;20045;-63
2022/03/31 10:45:13;;;;;;;0.00;0.00;;;1.40;99.90;;;;;;5042245;28;20033;-66
2022/03/31 10:47:41;;;;;;;0.00;0.00;;;1.20;99.90;;;;;;5042946;28;20052;-62
2022/03/31 10:50:09;;;;;;;0.00;0.00;;;1.30;99.90;;;;;;5059960;28;20517;-62
2022/03/31 10:52:35;;;;;;;0.10;0.10;;;1.30;99.90;;;;;;5060417;28;20453;-63
2022/03/31 10:55:18;;;;;;;0.13;0.10;;;1.40;99.90;;;;;;5061244;28;20051;-62
2022/03/31 10:57:45;;;;;;;0.00;0.00;;;1.30;99.90;;;;;;5058698;28;20513;-62
2022/03/31 11:00:14;;;;;;;0.00;0.00;;;1.40;99.90;;;;;;5061199;28;20036;-62
2022/03/31 11:02:44;;;;;;;0.05;0.05;;;1.30;99.90;;;;;;5052422;28;20063;-62
2022/03/31 11:05:10;;;;;;;0.00;0.00;;;1.30;99.90;;;;;;5051148;28;20119;-62
2022/03/31 11:07:37;;;;;;;0.00;0.00;;;0.80;99.90;;;;;;5060122;28;20052;-64
2022/03/31 11:10:12;;;;;;;0.00;0.00;;;1.40;99.90;;;;;;5061228;28;20068;-65
2022/03/31 11:12:38;;;;;;;0.00;0.00;;;1.50;99.90;;;;;;5060807;28;20585;-64
2022/03/31 11:15:16;;;;;;;0.10;0.10;;;1.40;99.90;;;;;;5061212;28;20056;-64
2022/03/31 11:17:43;;;;;;;0.00;0.00;;;1.50;99.90;;;;;;5060322;28;20071;-62
2022/03/31 11:20:17;;;;;;;0.00;0.00;;;1.40;99.90;;;;;;5061258;28;20068;-65
2022/03/31 11:22:47;;;;;;;0.00;0.00;;;1.40;99.90;;;;;;5059636;28;20048;-63
2022/03/31 11:25:13;;;;;;;0.00;0.00;;;1.50;99.90;;;;;;5060745;28;20049;-64
2022/03/31 11:27:41;;;;;;;0.00;0.00;;;1.50;99.90;;;;;;5056733;28;20043;-64
2022/03/31 11:30:09;;;;;;;0.00;0.00;;;1.50;99.90;;;;;;5041125;28;20041;-63
2022/03/31 11:32:36;;;;;;;0.00;0.00;;;1.50;99.90;;;;;;5040592;28;20179;-63
2022/03/31 11:35:17;;;;;;;0.00;0.00;;;1.50;99.90;;;;;;5043349;28;20113;-63
2022/03/31 11:38:04;;;;;;;0.00;0.00;;;1.50;99.90;;;;;;5041843;28;20644;-64
2022/03/31 11:40:31;;;;;;;0.00;0.00;;;1.50;99.90;;;;;;5061669;28;20381;-64
2022/03/31 11:43:00;;;;;;;0.10;0.00;;;1.70;99.90;;;;;;5061253;28;20410;-64
2022/03/31 11:45:31;;;;;;;0.00;0.00;;;1.40;99.90;;;;;;5061423;28;20128;-64
2022/03/31 11:48:17;;;;;;;0.00;0.00;;;1.50;99.90;;;;;;5060725;28;20049;-63
2022/03/31 11:50:56;;;;;;;0.00;0.00;;;1.30;99.90;;;;;;5060961;28;20055;-63
2022/03/31 11:53:28;;;;;;;0.00;0.00;;;1.50;99.90;;;;;;5060707;28;20040;-64
2022/03/31 11:55:57;;;;;;;0.00;0.00;;;1.40;99.90;;;;;;5060360;28;20052;-64
2022/03/31 11:58:23;;;;;;;0.00;0.00;;;1.30;99.90;;;;;;5060959;28;20055;-64
2022/03/31 12:00:50;;;;;;;0.10;0.10;;;1.30;99.90;;;;;;5059053;28;20044;-64
2022/03/31 12:03:17;;;;;;;0.00;0.00;;;1.40;99.90;;;;;;5052329;28;20053;-65
2022/03/31 12:05:53;;;;;;;0.00;0.00;;;1.40;99.90;;;;;;5044639;28;20174;-64
2022/03/31 12:08:19;;;;;;;0.00;0.00;;;1.40;99.90;;;;;;5043879;28;20041;-64
2022/03/31 12:10:50;;;;;;;0.00;0.00;;;1.40;99.90;;;;;;5044403;28;20063;-64
2022/03/31 12:13:15;;;;;;;0.00;0.00;;;1.70;99.90;;;;;;5045225;28;20102;-64
2022/03/31 12:15:41;;;;;;;0.70;0.20;;;1.50;99.90;;;;;;5044014;28;20679;-64
2022/03/31 12:18:11;;;;;;;0.00;0.00;;;1.50;99.90;;;;;;5044664;28;20564;-65
2022/03/31 12:20:37;;;;;;;0.32;0.17;;;1.50;99.90;;;;;;5044364;28;20523;-64
2022/03/31 12:23:16;;;;;;;0.05;0.05;;;1.60;99.90;;;;;;5043443;28;20080;-62
2022/03/31 12:25:41;;;;;;;0.10;0.10;;;1.60;99.90;;;;;;5044283;28;20048;-64
2022/03/31 12:28:08;;;;;;;0.00;0.00;;;1.80;99.90;;;;;;5044578;28;20037;-63
2022/03/31 12:30:48;;;;;;;0.03;0.03;;;1.90;99.90;;;;;;5044213;28;20047;-63
2022/03/31 12:33:27;;;;;;;0.00;0.00;;;1.90;99.90;;;;;;5044459;28;20045;-61
2022/03/31 12:36:06;;;;;;;0.00;0.00;;;1.90;99.90;;;;;;5025891;28;20056;-63
2022/03/31 12:38:44;;;;;;;0.10;0.10;;;1.90;99.90;;;;;;5044143;28;20461;-63
2022/03/31 12:41:17;;;;;;;0.00;0.00;;;1.80;99.90;;;;;;5044193;28;20081;-63
2022/03/31 12:43:54;;;;;;;0.03;0.03;;;1.80;99.90;;;;;;5026107;28;20044;-63
2022/03/31 12:46:20;;;;;;;0.10;0.10;;;1.90;99.90;;;;;;5044377;28;20049;-63
2022/03/31 12:48:53;;;;;;;0.10;0.10;;;1.80;99.90;;;;;;5025933;28;20571;-63
2022/03/31 12:51:20;;;;;;;0.10;0.10;;;1.80;99.90;;;;;;5044752;28;20041;-64
2022/03/31 12:53:46;;;;;;;0.10;0.03;;;1.80;99.90;;;;;;5043097;28;20114;-63
2022/03/31 12:56:21;;;;;;;0.10;0.10;;;1.80;99.90;;;;;;5043989;28;20041;-63
2022/03/31 12:58:47;;;;;;;0.43;0.43;;;1.80;99.90;;;;;;5043544;28;20053;-64
2022/03/31 13:01:13;;;;;;;0.00;0.00;;;1.80;99.90;;;;;;5046427;28;20048;-64
2022/03/31 13:03:38;;;;;;;0.03;0.03;;;1.80;99.90;;;;;;5052569;28;20451;-64
2022/03/31 13:06:04;;;;;;;0.05;0.05;;;1.70;99.90;;;;;;5043421;28;20040;-64